sensor_id;sensor_type;location;lat;lon;timestamp;P1;durP1;ratioP1;P2;durP2;ratioP2
75062;SDS011;63981;51.052;13.754;2023-06-10T00:02:08;6.60;;;5.95;;
75062;SDS011;63981;51.052;13.754;2023-06-10T00:04:35;6.93;;;6.28;;
75062;SDS011;63981;51.052;13.754;2023-06-10T00:07:09;8.00;;;6.65;;
75062;SDS011;63981;51.052;13.754;2023-06-10T00:09:35;7.65;;;6.88;;
75062;SDS011;63981;51.052;13.754;2023-06-10T00:12:05;9.05;;;7.03;;
75062;SDS011;63981;51.052;13.754;2023-06-10T00:14:33;7.38;;;6.53;;
75062;SDS011;63981;51.052;13.754;2023-06-10T00:16:59;6.70;;;5.65;;
75062;SDS011;63981;51.052;13.754;2023-06-10T00:19:25;9.15;;;7.05;;
75062;SDS011;63981;51.052;13.754;2023-06-10T00:21:51;6.88;;;6.18;;
75062;SDS011;63981;51.052;13.754;2023-06-10T00:24:17;10.85;;;8.57;;
75062;SDS011;63981;51.052;13.754;2023-06-10T00:26:43;8.40;;;7.50;;
75062;SDS011;63981;51.052;13.754;2023-06-10T00:29:10;8.18;;;7.07;;
75062;SDS011;63981;51.052;13.754;2023-06-10T00:31:37;9.43;;;6.35;;
75062;SDS011;63981;51.052;13.754;2023-06-10T00:34:06;6.05;;;5.43;;
75062;SDS011;63981;51.052;13.754;2023-06-10T00:36:32;6.38;;;5.72;;
75062;SDS011;63981;51.052;13.754;2023-06-10T00:38:58;6.50;;;5.60;;
75062;SDS011;63981;51.052;13.754;2023-06-10T00:41:24;6.53;;;5.93;;
75062;SDS011;63981;51.052;13.754;2023-06-10T00:43:51;6.82;;;6.13;;
75062;SDS011;63981;51.052;13.754;2023-06-10T00:46:17;7.15;;;5.97;;
75062;SDS011;63981;51.052;13.754;2023-06-10T00:48:44;6.65;;;5.93;;
75062;SDS011;63981;51.052;13.754;2023-06-10T00:51:10;6.57;;;5.97;;
75062;SDS011;63981;51.052;13.754;2023-06-10T00:53:38;5.90;;;5.30;;
75062;SDS011;63981;51.052;13.754;2023-06-10T00:56:05;6.20;;;5.60;;
75062;SDS011;63981;51.052;13.754;2023-06-10T00:58:31;6.32;;;5.72;;
75062;SDS011;63981;51.052;13.754;2023-06-10T01:00:57;9.05;;;7.78;;
75062;SDS011;63981;51.052;13.754;2023-06-10T01:03:27;6.57;;;5.97;;
75062;SDS011;63981;51.052;13.754;2023-06-10T01:06:18;7.30;;;6.32;;
75062;SDS011;63981;51.052;13.754;2023-06-10T01:08:46;7.82;;;6.50;;
75062;SDS011;63981;51.052;13.754;2023-06-10T01:11:32;5.38;;;4.88;;
75062;SDS011;63981;51.052;13.754;2023-06-10T01:14:02;7.78;;;6.97;;
75062;SDS011;63981;51.052;13.754;2023-06-10T01:16:30;7.38;;;6.55;;
75062;SDS011;63981;51.052;13.754;2023-06-10T01:18:56;7.47;;;6.38;;
75062;SDS011;63981;51.052;13.754;2023-06-10T01:21:24;7.60;;;6.40;;
75062;SDS011;63981;51.052;13.754;2023-06-10T01:24:09;7.18;;;6.32;;
75062;SDS011;63981;51.052;13.754;2023-06-10T01:26:38;6.45;;;5.82;;
75062;SDS011;63981;51.052;13.754;2023-06-10T01:29:07;7.35;;;6.60;;
75062;SDS011;63981;51.052;13.754;2023-06-10T01:34:16;8.80;;;6.80;;
75062;SDS011;63981;51.052;13.754;2023-06-10T01:36:47;6.18;;;5.57;;
75062;SDS011;63981;51.052;13.754;2023-06-10T01:39:20;6.72;;;5.82;;
75062;SDS011;63981;51.052;13.754;2023-06-10T01:41:49;8.88;;;7.10;;
75062;SDS011;63981;51.052;13.754;2023-06-10T01:44:19;9.57;;;7.28;;
75062;SDS011;63981;51.052;13.754;2023-06-10T01:46:48;10.27;;;7.47;;
75062;SDS011;63981;51.052;13.754;2023-06-10T01:49:14;7.00;;;6.40;;
75062;SDS011;63981;51.052;13.754;2023-06-10T01:51:42;7.20;;;6.18;;
75062;SDS011;63981;51.052;13.754;2023-06-10T01:54:08;5.82;;;5.30;;
75062;SDS011;63981;51.052;13.754;2023-06-10T01:56:34;6.95;;;6.25;;
75062;SDS011;63981;51.052;13.754;2023-06-10T01:59:01;5.70;;;5.20;;
75062;SDS011;63981;51.052;13.754;2023-06-10T02:01:26;5.72;;;5.22;;
75062;SDS011;63981;51.052;13.754;2023-06-10T02:03:52;6.60;;;5.80;;
75062;SDS011;63981;51.052;13.754;2023-06-10T02:06:18;4.95;;;4.45;;
75062;SDS011;63981;51.052;13.754;2023-06-10T02:08:44;7.20;;;6.50;;
75062;SDS011;63981;51.052;13.754;2023-06-10T02:11:10;7.75;;;6.95;;
75062;SDS011;63981;51.052;13.754;2023-06-10T02:13:37;6.55;;;5.47;;
75062;SDS011;63981;51.052;13.754;2023-06-10T02:16:03;6.53;;;5.88;;
75062;SDS011;63981;51.052;13.754;2023-06-10T02:18:31;9.45;;;5.90;;
75062;SDS011;63981;51.052;13.754;2023-06-10T02:20:56;6.93;;;6.18;;
75062;SDS011;63981;51.052;13.754;2023-06-10T02:23:22;6.35;;;5.75;;
75062;SDS011;63981;51.052;13.754;2023-06-10T02:25:48;8.60;;;7.75;;
75062;SDS011;63981;51.052;13.754;2023-06-10T02:28:14;6.70;;;5.88;;
75062;SDS011;63981;51.052;13.754;2023-06-10T02:30:43;5.47;;;4.80;;
75062;SDS011;63981;51.052;13.754;2023-06-10T02:33:09;6.13;;;5.53;;
75062;SDS011;63981;51.052;13.754;2023-06-10T02:35:37;7.50;;;6.72;;
75062;SDS011;63981;51.052;13.754;2023-06-10T02:38:04;7.05;;;6.35;;
75062;SDS011;63981;51.052;13.754;2023-06-10T02:40:34;6.57;;;5.88;;
75062;SDS011;63981;51.052;13.754;2023-06-10T02:43:00;8.60;;;6.50;;
75062;SDS011;63981;51.052;13.754;2023-06-10T02:45:26;5.93;;;5.28;;
75062;SDS011;63981;51.052;13.754;2023-06-10T02:47:53;6.78;;;6.07;;
75062;SDS011;63981;51.052;13.754;2023-06-10T02:50:19;6.10;;;5.50;;
75062;SDS011;63981;51.052;13.754;2023-06-10T02:53:11;11.10;;;8.68;;
75062;SDS011;63981;51.052;13.754;2023-06-10T02:55:41;13.70;;;8.23;;
75062;SDS011;63981;51.052;13.754;2023-06-10T02:58:11;7.78;;;6.38;;
75062;SDS011;63981;51.052;13.754;2023-06-10T03:00:37;6.70;;;6.00;;
75062;SDS011;63981;51.052;13.754;2023-06-10T03:03:07;8.20;;;7.40;;
75062;SDS011;63981;51.052;13.754;2023-06-10T03:05:42;6.78;;;5.22;;
75062;SDS011;63981;51.052;13.754;2023-06-10T03:08:08;6.03;;;5.43;;
75062;SDS011;63981;51.052;13.754;2023-06-10T03:10:37;7.93;;;7.13;;
75062;SDS011;63981;51.052;13.754;2023-06-10T03:13:04;8.90;;;7.07;;
75062;SDS011;63981;51.052;13.754;2023-06-10T03:15:30;7.93;;;7.18;;
75062;SDS011;63981;51.052;13.754;2023-06-10T03:18:01;6.68;;;6.07;;
75062;SDS011;63981;51.052;13.754;2023-06-10T03:20:28;6.85;;;6.15;;
75062;SDS011;63981;51.052;13.754;2023-06-10T03:22:56;7.40;;;6.57;;
75062;SDS011;63981;51.052;13.754;2023-06-10T03:25:21;9.52;;;6.82;;
75062;SDS011;63981;51.052;13.754;2023-06-10T03:27:51;8.27;;;6.82;;
75062;SDS011;63981;51.052;13.754;2023-06-10T03:30:18;9.15;;;8.07;;
75062;SDS011;63981;51.052;13.754;2023-06-10T03:32:45;9.45;;;8.27;;
75062;SDS011;63981;51.052;13.754;2023-06-10T03:35:14;8.45;;;7.63;;
75062;SDS011;63981;51.052;13.754;2023-06-10T03:37:40;9.70;;;8.23;;
75062;SDS011;63981;51.052;13.754;2023-06-10T03:40:07;12.13;;;8.75;;
75062;SDS011;63981;51.052;13.754;2023-06-10T03:42:35;8.10;;;7.28;;
75062;SDS011;63981;51.052;13.754;2023-06-10T03:45:01;7.82;;;6.82;;
75062;SDS011;63981;51.052;13.754;2023-06-10T03:47:34;6.75;;;6.05;;
75062;SDS011;63981;51.052;13.754;2023-06-10T03:50:05;8.25;;;7.45;;
75062;SDS011;63981;51.052;13.754;2023-06-10T03:52:33;6.18;;;5.57;;
75062;SDS011;63981;51.052;13.754;2023-06-10T03:54:59;6.97;;;6.28;;
75062;SDS011;63981;51.052;13.754;2023-06-10T03:57:25;7.85;;;6.00;;
75062;SDS011;63981;51.052;13.754;2023-06-10T03:59:51;7.97;;;6.45;;
75062;SDS011;63981;51.052;13.754;2023-06-10T04:02:17;6.97;;;6.28;;
75062;SDS011;63981;51.052;13.754;2023-06-10T04:04:43;8.15;;;6.10;;
75062;SDS011;63981;51.052;13.754;2023-06-10T04:07:09;7.28;;;6.57;;
75062;SDS011;63981;51.052;13.754;2023-06-10T04:09:36;8.93;;;8.00;;
75062;SDS011;63981;51.052;13.754;2023-06-10T04:12:02;10.05;;;7.75;;
75062;SDS011;63981;51.052;13.754;2023-06-10T04:14:32;7.60;;;6.75;;
75062;SDS011;63981;51.052;13.754;2023-06-10T04:16:58;6.38;;;5.78;;
75062;SDS011;63981;51.052;13.754;2023-06-10T04:19:24;8.93;;;7.57;;
75062;SDS011;63981;51.052;13.754;2023-06-10T04:21:50;8.52;;;7.65;;
75062;SDS011;63981;51.052;13.754;2023-06-10T04:24:17;9.35;;;8.05;;
75062;SDS011;63981;51.052;13.754;2023-06-10T04:26:44;7.00;;;6.00;;
75062;SDS011;63981;51.052;13.754;2023-06-10T04:29:11;8.00;;;7.20;;
75062;SDS011;63981;51.052;13.754;2023-06-10T04:31:37;7.68;;;6.97;;
75062;SDS011;63981;51.052;13.754;2023-06-10T04:34:03;9.40;;;8.38;;
75062;SDS011;63981;51.052;13.754;2023-06-10T04:36:30;9.23;;;7.28;;
75062;SDS011;63981;51.052;13.754;2023-06-10T04:38:56;8.63;;;7.82;;
75062;SDS011;63981;51.052;13.754;2023-06-10T04:41:22;9.65;;;7.57;;
75062;SDS011;63981;51.052;13.754;2023-06-10T04:43:48;11.73;;;10.00;;
75062;SDS011;63981;51.052;13.754;2023-06-10T04:46:14;9.55;;;8.57;;
75062;SDS011;63981;51.052;13.754;2023-06-10T04:48:40;9.63;;;8.20;;
75062;SDS011;63981;51.052;13.754;2023-06-10T04:53:34;8.65;;;7.82;;
75062;SDS011;63981;51.052;13.754;2023-06-10T04:56:00;10.88;;;8.93;;
75062;SDS011;63981;51.052;13.754;2023-06-10T04:58:25;8.85;;;7.82;;
75062;SDS011;63981;51.052;13.754;2023-06-10T05:00:51;8.45;;;7.65;;
75062;SDS011;63981;51.052;13.754;2023-06-10T05:03:17;8.48;;;7.57;;
75062;SDS011;63981;51.052;13.754;2023-06-10T05:05:43;9.45;;;8.20;;
75062;SDS011;63981;51.052;13.754;2023-06-10T05:08:09;9.68;;;8.68;;
75062;SDS011;63981;51.052;13.754;2023-06-10T05:10:34;9.40;;;8.48;;
75062;SDS011;63981;51.052;13.754;2023-06-10T05:13:00;9.52;;;8.35;;
75062;SDS011;63981;51.052;13.754;2023-06-10T05:15:26;9.75;;;8.10;;
75062;SDS011;63981;51.052;13.754;2023-06-10T05:17:52;9.68;;;8.20;;
75062;SDS011;63981;51.052;13.754;2023-06-10T05:20:18;8.20;;;6.97;;
75062;SDS011;63981;51.052;13.754;2023-06-10T05:22:43;8.90;;;6.82;;
75062;SDS011;63981;51.052;13.754;2023-06-10T05:25:10;8.98;;;8.07;;
75062;SDS011;63981;51.052;13.754;2023-06-10T05:27:36;7.60;;;6.70;;
75062;SDS011;63981;51.052;13.754;2023-06-10T05:30:02;7.00;;;6.30;;
75062;SDS011;63981;51.052;13.754;2023-06-10T05:32:29;9.77;;;6.30;;
75062;SDS011;63981;51.052;13.754;2023-06-10T05:34:55;9.63;;;7.07;;
75062;SDS011;63981;51.052;13.754;2023-06-10T05:37:21;7.30;;;6.60;;
75062;SDS011;63981;51.052;13.754;2023-06-10T05:39:47;7.22;;;6.50;;
75062;SDS011;63981;51.052;13.754;2023-06-10T05:42:13;9.40;;;7.95;;
75062;SDS011;63981;51.052;13.754;2023-06-10T05:44:39;7.47;;;6.75;;
75062;SDS011;63981;51.052;13.754;2023-06-10T05:47:05;9.80;;;5.43;;
75062;SDS011;63981;51.052;13.754;2023-06-10T05:49:30;7.55;;;6.65;;
75062;SDS011;63981;51.052;13.754;2023-06-10T05:51:56;8.10;;;6.28;;
75062;SDS011;63981;51.052;13.754;2023-06-10T05:56:50;6.30;;;5.70;;
75062;SDS011;63981;51.052;13.754;2023-06-10T05:59:16;6.68;;;6.00;;
75062;SDS011;63981;51.052;13.754;2023-06-10T06:01:42;6.00;;;5.10;;
75062;SDS011;63981;51.052;13.754;2023-06-10T06:04:08;6.22;;;5.63;;
75062;SDS011;63981;51.052;13.754;2023-06-10T06:06:34;6.03;;;5.50;;
75062;SDS011;63981;51.052;13.754;2023-06-10T06:09:00;5.07;;;4.68;;
75062;SDS011;63981;51.052;13.754;2023-06-10T06:11:26;5.80;;;5.30;;
75062;SDS011;63981;51.052;13.754;2023-06-10T06:13:52;6.63;;;5.50;;
75062;SDS011;63981;51.052;13.754;2023-06-10T06:16:18;6.53;;;5.93;;
75062;SDS011;63981;51.052;13.754;2023-06-10T06:18:44;6.68;;;5.63;;
75062;SDS011;63981;51.052;13.754;2023-06-10T06:21:10;5.97;;;5.35;;
75062;SDS011;63981;51.052;13.754;2023-06-10T06:23:35;5.38;;;4.88;;
75062;SDS011;63981;51.052;13.754;2023-06-10T06:26:01;4.93;;;4.45;;
75062;SDS011;63981;51.052;13.754;2023-06-10T06:28:27;5.65;;;5.00;;
75062;SDS011;63981;51.052;13.754;2023-06-10T06:30:55;5.30;;;4.68;;
75062;SDS011;63981;51.052;13.754;2023-06-10T06:33:21;5.68;;;5.13;;
75062;SDS011;63981;51.052;13.754;2023-06-10T06:35:47;5.40;;;4.22;;
75062;SDS011;63981;51.052;13.754;2023-06-10T06:38:13;5.90;;;4.55;;
75062;SDS011;63981;51.052;13.754;2023-06-10T06:40:40;5.45;;;4.65;;
75062;SDS011;63981;51.052;13.754;2023-06-10T06:43:06;4.90;;;4.50;;
75062;SDS011;63981;51.052;13.754;2023-06-10T06:45:52;4.72;;;3.55;;
75062;SDS011;63981;51.052;13.754;2023-06-10T06:48:18;5.78;;;4.68;;
75062;SDS011;63981;51.052;13.754;2023-06-10T06:50:44;6.03;;;5.53;;
75062;SDS011;63981;51.052;13.754;2023-06-10T06:53:09;4.22;;;3.85;;
75062;SDS011;63981;51.052;13.754;2023-06-10T06:55:35;5.00;;;3.95;;
75062;SDS011;63981;51.052;13.754;2023-06-10T06:58:01;4.85;;;4.32;;
75062;SDS011;63981;51.052;13.754;2023-06-10T07:00:29;4.47;;;4.07;;
75062;SDS011;63981;51.052;13.754;2023-06-10T07:02:55;6.40;;;5.70;;
75062;SDS011;63981;51.052;13.754;2023-06-10T07:05:23;6.28;;;5.68;;
75062;SDS011;63981;51.052;13.754;2023-06-10T07:07:51;6.07;;;5.38;;
75062;SDS011;63981;51.052;13.754;2023-06-10T07:10:21;5.63;;;5.03;;
75062;SDS011;63981;51.052;13.754;2023-06-10T07:12:48;4.53;;;4.13;;
75062;SDS011;63981;51.052;13.754;2023-06-10T07:15:14;4.90;;;4.40;;
75062;SDS011;63981;51.052;13.754;2023-06-10T07:17:39;4.78;;;4.38;;
75062;SDS011;63981;51.052;13.754;2023-06-10T07:20:05;6.13;;;5.47;;
75062;SDS011;63981;51.052;13.754;2023-06-10T07:22:31;5.95;;;5.38;;
75062;SDS011;63981;51.052;13.754;2023-06-10T07:24:57;6.30;;;5.70;;
75062;SDS011;63981;51.052;13.754;2023-06-10T07:27:23;5.82;;;5.25;;
75062;SDS011;63981;51.052;13.754;2023-06-10T07:29:50;6.18;;;5.57;;
75062;SDS011;63981;51.052;13.754;2023-06-10T07:32:16;6.07;;;4.70;;
75062;SDS011;63981;51.052;13.754;2023-06-10T07:34:42;4.82;;;4.43;;
75062;SDS011;63981;51.052;13.754;2023-06-10T07:37:08;6.03;;;4.60;;
75062;SDS011;63981;51.052;13.754;2023-06-10T07:39:34;5.43;;;4.97;;
75062;SDS011;63981;51.052;13.754;2023-06-10T07:42:00;5.30;;;4.70;;
75062;SDS011;63981;51.052;13.754;2023-06-10T07:44:26;6.00;;;5.45;;
75062;SDS011;63981;51.052;13.754;2023-06-10T07:46:52;6.55;;;5.95;;
75062;SDS011;63981;51.052;13.754;2023-06-10T07:49:18;7.80;;;5.47;;
75062;SDS011;63981;51.052;13.754;2023-06-10T07:51:43;6.53;;;5.72;;
75062;SDS011;63981;51.052;13.754;2023-06-10T07:54:09;7.15;;;5.60;;
75062;SDS011;63981;51.052;13.754;2023-06-10T07:56:38;6.00;;;5.43;;
75062;SDS011;63981;51.052;13.754;2023-06-10T07:59:04;8.15;;;5.40;;
75062;SDS011;63981;51.052;13.754;2023-06-10T08:01:30;6.22;;;5.63;;
75062;SDS011;63981;51.052;13.754;2023-06-10T08:03:56;6.20;;;5.60;;
75062;SDS011;63981;51.052;13.754;2023-06-10T08:06:22;6.05;;;5.40;;
75062;SDS011;63981;51.052;13.754;2023-06-10T08:08:48;6.95;;;6.00;;
75062;SDS011;63981;51.052;13.754;2023-06-10T08:11:14;5.70;;;5.07;;
75062;SDS011;63981;51.052;13.754;2023-06-10T08:13:39;6.25;;;5.32;;
75062;SDS011;63981;51.052;13.754;2023-06-10T08:16:05;5.20;;;4.35;;
75062;SDS011;63981;51.052;13.754;2023-06-10T08:18:31;5.88;;;5.28;;
75062;SDS011;63981;51.052;13.754;2023-06-10T08:20:57;6.10;;;5.38;;
75062;SDS011;63981;51.052;13.754;2023-06-10T08:23:23;5.18;;;4.68;;
75062;SDS011;63981;51.052;13.754;2023-06-10T08:25:49;5.18;;;4.13;;
75062;SDS011;63981;51.052;13.754;2023-06-10T08:28:14;6.47;;;5.40;;
75062;SDS011;63981;51.052;13.754;2023-06-10T08:30:40;5.20;;;4.57;;
75062;SDS011;63981;51.052;13.754;2023-06-10T08:33:06;5.50;;;4.93;;
75062;SDS011;63981;51.052;13.754;2023-06-10T08:35:32;5.57;;;4.93;;
75062;SDS011;63981;51.052;13.754;2023-06-10T08:37:58;6.45;;;4.63;;
75062;SDS011;63981;51.052;13.754;2023-06-10T08:40:24;5.30;;;4.80;;
75062;SDS011;63981;51.052;13.754;2023-06-10T08:42:56;5.95;;;5.35;;
75062;SDS011;63981;51.052;13.754;2023-06-10T08:45:41;5.93;;;5.35;;
75062;SDS011;63981;51.052;13.754;2023-06-10T08:48:08;5.00;;;4.47;;
75062;SDS011;63981;51.052;13.754;2023-06-10T08:50:38;4.53;;;4.13;;
75062;SDS011;63981;51.052;13.754;2023-06-10T08:53:05;5.63;;;4.75;;
75062;SDS011;63981;51.052;13.754;2023-06-10T08:55:33;4.63;;;4.10;;
75062;SDS011;63981;51.052;13.754;2023-06-10T08:58:07;6.78;;;5.50;;
75062;SDS011;63981;51.052;13.754;2023-06-10T09:00:33;6.00;;;5.40;;
75062;SDS011;63981;51.052;13.754;2023-06-10T09:02:59;4.95;;;4.18;;
75062;SDS011;63981;51.052;13.754;2023-06-10T09:05:27;4.38;;;3.97;;
75062;SDS011;63981;51.052;13.754;2023-06-10T09:07:54;5.25;;;4.72;;
75062;SDS011;63981;51.052;13.754;2023-06-10T09:10:22;5.50;;;4.95;;
75062;SDS011;63981;51.052;13.754;2023-06-10T09:12:48;5.05;;;4.55;;
75062;SDS011;63981;51.052;13.754;2023-06-10T09:15:14;4.38;;;3.47;;
75062;SDS011;63981;51.052;13.754;2023-06-10T09:17:40;5.82;;;5.18;;
75062;SDS011;63981;51.052;13.754;2023-06-10T09:20:07;7.70;;;5.65;;
75062;SDS011;63981;51.052;13.754;2023-06-10T09:22:33;5.80;;;4.47;;
75062;SDS011;63981;51.052;13.754;2023-06-10T09:25:06;4.82;;;4.28;;
75062;SDS011;63981;51.052;13.754;2023-06-10T09:27:46;5.30;;;4.50;;
75062;SDS011;63981;51.052;13.754;2023-06-10T09:30:49;4.85;;;4.45;;
75062;SDS011;63981;51.052;13.754;2023-06-10T09:33:12;4.45;;;4.05;;
75062;SDS011;63981;51.052;13.754;2023-06-10T09:35:47;5.57;;;5.03;;
75062;SDS011;63981;51.052;13.754;2023-06-10T09:38:23;5.72;;;4.72;;
75062;SDS011;63981;51.052;13.754;2023-06-10T09:40:52;6.72;;;4.75;;
75062;SDS011;63981;51.052;13.754;2023-06-10T09:43:18;5.53;;;3.88;;
75062;SDS011;63981;51.052;13.754;2023-06-10T09:45:47;4.78;;;4.35;;
75062;SDS011;63981;51.052;13.754;2023-06-10T09:48:18;4.18;;;3.78;;
75062;SDS011;63981;51.052;13.754;2023-06-10T09:50:44;5.07;;;4.25;;
75062;SDS011;63981;51.052;13.754;2023-06-10T09:53:11;5.65;;;3.50;;
75062;SDS011;63981;51.052;13.754;2023-06-10T09:55:38;4.10;;;3.33;;
75062;SDS011;63981;51.052;13.754;2023-06-10T09:58:04;4.50;;;3.90;;
75062;SDS011;63981;51.052;13.754;2023-06-10T10:00:33;4.53;;;3.33;;
75062;SDS011;63981;51.052;13.754;2023-06-10T10:03:00;7.22;;;3.45;;
75062;SDS011;63981;51.052;13.754;2023-06-10T10:05:27;5.22;;;3.63;;
75062;SDS011;63981;51.052;13.754;2023-06-10T10:07:53;5.00;;;3.50;;
75062;SDS011;63981;51.052;13.754;2023-06-10T10:10:20;3.90;;;3.50;;
75062;SDS011;63981;51.052;13.754;2023-06-10T10:15:12;5.22;;;4.78;;
75062;SDS011;63981;51.052;13.754;2023-06-10T10:17:45;4.85;;;4.30;;
75062;SDS011;63981;51.052;13.754;2023-06-10T10:20:16;4.50;;;4.10;;
75062;SDS011;63981;51.052;13.754;2023-06-10T10:22:46;4.30;;;3.88;;
75062;SDS011;63981;51.052;13.754;2023-06-10T10:25:21;4.22;;;3.72;;
75062;SDS011;63981;51.052;13.754;2023-06-10T10:28:06;4.65;;;4.18;;
75062;SDS011;63981;51.052;13.754;2023-06-10T10:30:37;4.65;;;4.25;;
75062;SDS011;63981;51.052;13.754;2023-06-10T10:33:12;5.63;;;4.30;;
75062;SDS011;63981;51.052;13.754;2023-06-10T10:35:44;5.03;;;4.55;;
75062;SDS011;63981;51.052;13.754;2023-06-10T10:38:11;5.85;;;4.70;;
75062;SDS011;63981;51.052;13.754;2023-06-10T10:40:37;5.18;;;4.50;;
75062;SDS011;63981;51.052;13.754;2023-06-10T10:43:04;4.60;;;4.20;;
75062;SDS011;63981;51.052;13.754;2023-06-10T10:45:32;5.30;;;4.55;;
75062;SDS011;63981;51.052;13.754;2023-06-10T10:47:59;5.68;;;5.18;;
75062;SDS011;63981;51.052;13.754;2023-06-10T10:50:31;5.03;;;4.47;;
75062;SDS011;63981;51.052;13.754;2023-06-10T10:53:04;5.57;;;5.00;;
75062;SDS011;63981;51.052;13.754;2023-06-10T10:55:31;4.75;;;4.20;;
75062;SDS011;63981;51.052;13.754;2023-06-10T10:57:58;5.15;;;4.65;;
75062;SDS011;63981;51.052;13.754;2023-06-10T11:00:31;5.60;;;4.35;;
75062;SDS011;63981;51.052;13.754;2023-06-10T11:05:31;6.43;;;4.20;;
75062;SDS011;63981;51.052;13.754;2023-06-10T11:08:09;6.00;;;4.65;;
75062;SDS011;63981;51.052;13.754;2023-06-10T11:10:37;4.00;;;3.53;;
75062;SDS011;63981;51.052;13.754;2023-06-10T11:13:13;4.82;;;3.90;;
75062;SDS011;63981;51.052;13.754;2023-06-10T11:15:46;5.55;;;4.15;;
75062;SDS011;63981;51.052;13.754;2023-06-10T11:21:03;4.55;;;4.15;;
75062;SDS011;63981;51.052;13.754;2023-06-10T11:23:33;4.65;;;4.18;;
75062;SDS011;63981;51.052;13.754;2023-06-10T11:26:12;3.90;;;3.60;;
75062;SDS011;63981;51.052;13.754;2023-06-10T11:31:26;4.80;;;4.30;;
75062;SDS011;63981;51.052;13.754;2023-06-10T11:33:53;5.75;;;4.60;;
75062;SDS011;63981;51.052;13.754;2023-06-10T11:36:21;5.63;;;4.30;;
75062;SDS011;63981;51.052;13.754;2023-06-10T11:38:47;6.13;;;4.50;;
75062;SDS011;63981;51.052;13.754;2023-06-10T11:41:14;8.70;;;6.00;;
75062;SDS011;63981;51.052;13.754;2023-06-10T11:43:43;5.40;;;4.63;;
75062;SDS011;63981;51.052;13.754;2023-06-10T11:46:10;6.47;;;4.65;;
75062;SDS011;63981;51.052;13.754;2023-06-10T11:48:37;7.75;;;4.35;;
75062;SDS011;63981;51.052;13.754;2023-06-10T11:51:09;3.70;;;3.40;;
75062;SDS011;63981;51.052;13.754;2023-06-10T11:53:35;5.45;;;4.20;;
75062;SDS011;63981;51.052;13.754;2023-06-10T11:56:01;6.03;;;4.32;;
75062;SDS011;63981;51.052;13.754;2023-06-10T11:58:26;6.55;;;4.13;;
75062;SDS011;63981;51.052;13.754;2023-06-10T12:00:53;6.40;;;3.53;;
75062;SDS011;63981;51.052;13.754;2023-06-10T12:03:21;6.32;;;3.95;;
75062;SDS011;63981;51.052;13.754;2023-06-10T12:05:55;6.93;;;3.60;;
75062;SDS011;63981;51.052;13.754;2023-06-10T12:08:22;3.75;;;3.38;;
75062;SDS011;63981;51.052;13.754;2023-06-10T12:10:49;3.50;;;3.13;;
75062;SDS011;63981;51.052;13.754;2023-06-10T12:13:15;5.32;;;3.92;;
75062;SDS011;63981;51.052;13.754;2023-06-10T12:15:43;3.50;;;3.20;;
75062;SDS011;63981;51.052;13.754;2023-06-10T12:20:46;4.03;;;3.67;;
75062;SDS011;63981;51.052;13.754;2023-06-10T12:23:12;4.45;;;3.90;;
75062;SDS011;63981;51.052;13.754;2023-06-10T12:25:39;4.95;;;3.90;;
75062;SDS011;63981;51.052;13.754;2023-06-10T12:28:05;4.63;;;3.50;;
75062;SDS011;63981;51.052;13.754;2023-06-10T12:30:34;3.67;;;3.28;;
75062;SDS011;63981;51.052;13.754;2023-06-10T12:32:59;4.20;;;3.45;;
75062;SDS011;63981;51.052;13.754;2023-06-10T12:35:26;3.90;;;3.50;;
75062;SDS011;63981;51.052;13.754;2023-06-10T12:37:59;5.10;;;3.33;;
75062;SDS011;63981;51.052;13.754;2023-06-10T12:40:37;3.47;;;3.17;;
75062;SDS011;63981;51.052;13.754;2023-06-10T12:43:05;5.05;;;3.65;;
75062;SDS011;63981;51.052;13.754;2023-06-10T12:45:35;4.05;;;3.65;;
75062;SDS011;63981;51.052;13.754;2023-06-10T12:48:06;4.13;;;3.45;;
75062;SDS011;63981;51.052;13.754;2023-06-10T12:50:37;4.22;;;3.90;;
75062;SDS011;63981;51.052;13.754;2023-06-10T12:53:05;4.68;;;3.75;;
75062;SDS011;63981;51.052;13.754;2023-06-10T12:55:31;5.78;;;3.90;;
75062;SDS011;63981;51.052;13.754;2023-06-10T12:57:58;4.50;;;3.53;;
75062;SDS011;63981;51.052;13.754;2023-06-10T13:00:25;4.22;;;3.55;;
75062;SDS011;63981;51.052;13.754;2023-06-10T13:02:53;5.03;;;3.17;;
75062;SDS011;63981;51.052;13.754;2023-06-10T13:05:19;4.47;;;3.28;;
75062;SDS011;63981;51.052;13.754;2023-06-10T13:07:46;6.03;;;3.67;;
75062;SDS011;63981;51.052;13.754;2023-06-10T13:10:13;5.72;;;3.83;;
75062;SDS011;63981;51.052;13.754;2023-06-10T13:12:39;6.93;;;3.90;;
75062;SDS011;63981;51.052;13.754;2023-06-10T13:15:05;5.95;;;4.03;;
75062;SDS011;63981;51.052;13.754;2023-06-10T13:17:32;3.97;;;3.00;;
75062;SDS011;63981;51.052;13.754;2023-06-10T13:19:59;4.68;;;3.83;;
75062;SDS011;63981;51.052;13.754;2023-06-10T13:22:26;3.65;;;3.30;;
75062;SDS011;63981;51.052;13.754;2023-06-10T13:24:52;4.05;;;3.35;;
75062;SDS011;63981;51.052;13.754;2023-06-10T13:27:18;5.43;;;3.55;;
75062;SDS011;63981;51.052;13.754;2023-06-10T13:29:44;4.45;;;3.90;;
75062;SDS011;63981;51.052;13.754;2023-06-10T13:32:10;3.78;;;3.35;;
75062;SDS011;63981;51.052;13.754;2023-06-10T13:34:36;3.55;;;3.00;;
75062;SDS011;63981;51.052;13.754;2023-06-10T13:37:01;4.20;;;3.47;;
75062;SDS011;63981;51.052;13.754;2023-06-10T13:39:29;4.10;;;3.22;;
75062;SDS011;63981;51.052;13.754;2023-06-10T13:41:55;6.25;;;3.50;;
75062;SDS011;63981;51.052;13.754;2023-06-10T13:44:20;3.67;;;3.03;;
75062;SDS011;63981;51.052;13.754;2023-06-10T13:46:46;3.63;;;2.90;;
75062;SDS011;63981;51.052;13.754;2023-06-10T13:49:12;3.10;;;2.80;;
75062;SDS011;63981;51.052;13.754;2023-06-10T13:51:38;3.22;;;2.90;;
75062;SDS011;63981;51.052;13.754;2023-06-10T13:54:04;6.35;;;3.45;;
75062;SDS011;63981;51.052;13.754;2023-06-10T13:56:30;3.70;;;3.35;;
75062;SDS011;63981;51.052;13.754;2023-06-10T13:58:56;2.63;;;2.42;;
75062;SDS011;63981;51.052;13.754;2023-06-10T14:01:21;4.85;;;3.00;;
75062;SDS011;63981;51.052;13.754;2023-06-10T14:03:47;3.88;;;2.83;;
75062;SDS011;63981;51.052;13.754;2023-06-10T14:06:13;2.65;;;2.45;;
75062;SDS011;63981;51.052;13.754;2023-06-10T14:08:44;3.53;;;3.05;;
75062;SDS011;63981;51.052;13.754;2023-06-10T14:11:10;3.83;;;2.75;;
75062;SDS011;63981;51.052;13.754;2023-06-10T14:13:36;4.55;;;2.90;;
75062;SDS011;63981;51.052;13.754;2023-06-10T14:16:04;3.35;;;3.05;;
75062;SDS011;63981;51.052;13.754;2023-06-10T14:18:30;4.15;;;3.00;;
75062;SDS011;63981;51.052;13.754;2023-06-10T14:20:56;3.90;;;2.90;;
75062;SDS011;63981;51.052;13.754;2023-06-10T14:23:21;3.95;;;3.13;;
75062;SDS011;63981;51.052;13.754;2023-06-10T14:25:47;3.85;;;3.45;;
75062;SDS011;63981;51.052;13.754;2023-06-10T14:28:13;4.35;;;3.47;;
75062;SDS011;63981;51.052;13.754;2023-06-10T14:30:39;4.57;;;2.92;;
75062;SDS011;63981;51.052;13.754;2023-06-10T14:33:05;3.10;;;2.80;;
75062;SDS011;63981;51.052;13.754;2023-06-10T14:35:31;4.35;;;3.42;;
75062;SDS011;63981;51.052;13.754;2023-06-10T14:37:57;4.28;;;3.33;;
75062;SDS011;63981;51.052;13.754;2023-06-10T14:40:22;3.85;;;3.42;;
75062;SDS011;63981;51.052;13.754;2023-06-10T14:42:50;5.47;;;3.63;;
75062;SDS011;63981;51.052;13.754;2023-06-10T14:45:16;4.53;;;3.75;;
75062;SDS011;63981;51.052;13.754;2023-06-10T14:47:41;5.15;;;3.58;;
75062;SDS011;63981;51.052;13.754;2023-06-10T14:50:07;4.55;;;3.97;;
75062;SDS011;63981;51.052;13.754;2023-06-10T14:52:33;6.60;;;4.18;;
75062;SDS011;63981;51.052;13.754;2023-06-10T14:54:59;4.00;;;3.58;;
75062;SDS011;63981;51.052;13.754;2023-06-10T14:57:24;4.55;;;3.65;;